sensor_id;sensor_type;location;lat;lon;timestamp;temperature;humidity
10083;DHT22;5080;48.528;8.078;2022-12-29T00:01:36;14.10;99.90
10083;DHT22;5080;48.528;8.078;2022-12-29T00:04:04;14.20;99.90
10083;DHT22;5080;48.528;8.078;2022-12-29T00:06:33;14.20;99.90
10083;DHT22;5080;48.528;8.078;2022-12-29T00:09:00;14.20;99.90
10083;DHT22;5080;48.528;8.078;2022-12-29T00:11:27;14.20;99.90
10083;DHT22;5080;48.528;8.078;2022-12-29T00:13:54;14.20;99.90
10083;DHT22;5080;48.528;8.078;2022-12-29T00:16:41;14.30;99.90
10083;DHT22;5080;48.528;8.078;2022-12-29T00:19:09;14.30;99.90
10083;DHT22;5080;48.528;8.078;2022-12-29T00:22:01;14.30;99.90
10083;DHT22;5080;48.528;8.078;2022-12-29T00:24:45;14.30;99.90
10083;DHT22;5080;48.528;8.078;2022-12-29T00:27:30;14.40;99.90
10083;DHT22;5080;48.528;8.078;2022-12-29T00:30:16;14.40;99.90
10083;DHT22;5080;48.528;8.078;2022-12-29T00:33:09;14.40;99.90
10083;DHT22;5080;48.528;8.078;2022-12-29T00:35:57;14.40;99.90
10083;DHT22;5080;48.528;8.078;2022-12-29T00:38:26;14.30;99.90
10083;DHT22;5080;48.528;8.078;2022-12-29T00:41:11;14.30;99.90
10083;DHT22;5080;48.528;8.078;2022-12-29T00:43:56;14.30;99.90
10083;DHT22;5080;48.528;8.078;2022-12-29T00:46:32;14.20;99.90
10083;DHT22;5080;48.528;8.078;2022-12-29T00:49:00;14.20;99.90
10083;DHT22;5080;48.528;8.078;2022-12-29T00:51:47;14.20;99.90
10083;DHT22;5080;48.528;8.078;2022-12-29T00:54:16;14.10;99.90
10083;DHT22;5080;48.528;8.078;2022-12-29T00:56:43;14.10;99.90
10083;DHT22;5080;48.528;8.078;2022-12-29T00:59:12;14.10;99.90
10083;DHT22;5080;48.528;8.078;2022-12-29T01:01:39;14.10;99.90
10083;DHT22;5080;48.528;8.078;2022-12-29T01:04:06;14.00;99.90
10083;DHT22;5080;48.528;8.078;2022-12-29T01:06:34;14.00;99.90
10083;DHT22;5080;48.528;8.078;2022-12-29T01:09:02;14.00;99.90
10083;DHT22;5080;48.528;8.078;2022-12-29T01:11:48;14.00;99.90
10083;DHT22;5080;48.528;8.078;2022-12-29T01:14:15;14.00;99.90
10083;DHT22;5080;48.528;8.078;2022-12-29T01:16:42;14.00;99.90
10083;DHT22;5080;48.528;8.078;2022-12-29T01:19:09;14.00;99.90
10083;DHT22;5080;48.528;8.078;2022-12-29T01:21:36;14.00;99.90
10083;DHT22;5080;48.528;8.078;2022-12-29T01:24:04;14.00;99.90
10083;DHT22;5080;48.528;8.078;2022-12-29T01:26:31;14.00;99.90
10083;DHT22;5080;48.528;8.078;2022-12-29T01:29:00;13.90;99.90
10083;DHT22;5080;48.528;8.078;2022-12-29T01:31:27;13.90;99.90
10083;DHT22;5080;48.528;8.078;2022-12-29T01:33:54;13.90;99.90
10083;DHT22;5080;48.528;8.078;2022-12-29T01:36:21;13.90;99.90
10083;DHT22;5080;48.528;8.078;2022-12-29T01:38:48;13.90;99.90
10083;DHT22;5080;48.528;8.078;2022-12-29T01:41:16;13.90;99.90
10083;DHT22;5080;48.528;8.078;2022-12-29T01:43:45;14.00;99.90
10083;DHT22;5080;48.528;8.078;2022-12-29T01:46:23;14.00;99.90
10083;DHT22;5080;48.528;8.078;2022-12-29T01:48:53;14.00;99.90
10083;DHT22;5080;48.528;8.078;2022-12-29T01:51:23;14.00;99.90
10083;DHT22;5080;48.528;8.078;2022-12-29T01:53:52;14.10;99.90
10083;DHT22;5080;48.528;8.078;2022-12-29T01:56:20;14.10;99.90
10083;DHT22;5080;48.528;8.078;2022-12-29T01:58:52;14.00;99.90
10083;DHT22;5080;48.528;8.078;2022-12-29T02:01:22;14.10;99.90
10083;DHT22;5080;48.528;8.078;2022-12-29T02:03:50;14.00;99.90
10083;DHT22;5080;48.528;8.078;2022-12-29T02:06:21;14.00;99.90
10083;DHT22;5080;48.528;8.078;2022-12-29T02:08:50;14.00;99.90
10083;DHT22;5080;48.528;8.078;2022-12-29T02:11:19;14.00;99.90
10083;DHT22;5080;48.528;8.078;2022-12-29T02:13:47;14.00;99.90
10083;DHT22;5080;48.528;8.078;2022-12-29T02:16:31;14.00;99.90
10083;DHT22;5080;48.528;8.078;2022-12-29T02:19:19;14.00;99.90
10083;DHT22;5080;48.528;8.078;2022-12-29T02:22:02;14.00;99.90
10083;DHT22;5080;48.528;8.078;2022-12-29T02:24:57;14.00;99.90
10083;DHT22;5080;48.528;8.078;2022-12-29T02:27:51;14.00;99.90
10083;DHT22;5080;48.528;8.078;2022-12-29T02:30:42;14.00;99.90
10083;DHT22;5080;48.528;8.078;2022-12-29T02:33:19;14.00;99.90
10083;DHT22;5080;48.528;8.078;2022-12-29T02:35:54;13.90;99.90
10083;DHT22;5080;48.528;8.078;2022-12-29T02:38:29;13.90;99.90
10083;DHT22;5080;48.528;8.078;2022-12-29T02:41:02;14.00;99.90
10083;DHT22;5080;48.528;8.078;2022-12-29T02:43:37;14.00;99.90
10083;DHT22;5080;48.528;8.078;2022-12-29T02:46:12;13.90;99.90
10083;DHT22;5080;48.528;8.078;2022-12-29T02:48:46;13.90;99.90
10083;DHT22;5080;48.528;8.078;2022-12-29T02:51:19;13.90;99.90
10083;DHT22;5080;48.528;8.078;2022-12-29T02:53:46;13.90;99.90
10083;DHT22;5080;48.528;8.078;2022-12-29T02:56:31;14.00;99.90
10083;DHT22;5080;48.528;8.078;2022-12-29T02:58:58;13.90;99.90
10083;DHT22;5080;48.528;8.078;2022-12-29T03:01:38;13.90;99.90
10083;DHT22;5080;48.528;8.078;2022-12-29T03:04:37;13.90;99.90
10083;DHT22;5080;48.528;8.078;2022-12-29T03:07:16;13.80;99.90
10083;DHT22;5080;48.528;8.078;2022-12-29T03:09:52;13.80;99.90
10083;DHT22;5080;48.528;8.078;2022-12-29T03:12:29;13.80;99.90
10083;DHT22;5080;48.528;8.078;2022-12-29T03:15:20;13.70;99.90
10083;DHT22;5080;48.528;8.078;2022-12-29T03:18:13;13.70;99.90
10083;DHT22;5080;48.528;8.078;2022-12-29T03:20:48;13.60;99.90
10083;DHT22;5080;48.528;8.078;2022-12-29T03:23:17;13.60;99.90
10083;DHT22;5080;48.528;8.078;2022-12-29T03:25:48;13.60;99.90
10083;DHT22;5080;48.528;8.078;2022-12-29T03:28:20;13.60;99.90
10083;DHT22;5080;48.528;8.078;2022-12-29T03:30:48;13.60;99.90
10083;DHT22;5080;48.528;8.078;2022-12-29T03:33:20;13.60;99.90
10083;DHT22;5080;48.528;8.078;2022-12-29T03:35:49;13.60;99.90
10083;DHT22;5080;48.528;8.078;2022-12-29T03:38:19;13.60;99.90
10083;DHT22;5080;48.528;8.078;2022-12-29T03:40:53;13.50;99.90
10083;DHT22;5080;48.528;8.078;2022-12-29T03:43:22;13.50;99.90
10083;DHT22;5080;48.528;8.078;2022-12-29T03:45:50;13.50;99.90
10083;DHT22;5080;48.528;8.078;2022-12-29T03:48:18;13.50;99.90
10083;DHT22;5080;48.528;8.078;2022-12-29T03:50:45;13.50;99.90
10083;DHT22;5080;48.528;8.078;2022-12-29T03:53:12;13.50;99.90
10083;DHT22;5080;48.528;8.078;2022-12-29T03:55:39;13.50;99.90
10083;DHT22;5080;48.528;8.078;2022-12-29T03:58:06;13.60;99.90
10083;DHT22;5080;48.528;8.078;2022-12-29T04:00:33;13.60;99.90
10083;DHT22;5080;48.528;8.078;2022-12-29T04:03:00;13.60;99.90
10083;DHT22;5080;48.528;8.078;2022-12-29T04:05:28;13.60;99.90
10083;DHT22;5080;48.528;8.078;2022-12-29T04:07:56;13.60;99.90
10083;DHT22;5080;48.528;8.078;2022-12-29T04:10:23;13.50;99.90
10083;DHT22;5080;48.528;8.078;2022-12-29T04:12:50;13.60;99.90
10083;DHT22;5080;48.528;8.078;2022-12-29T04:15:18;13.50;99.90
10083;DHT22;5080;48.528;8.078;2022-12-29T04:17:45;13.60;99.90
10083;DHT22;5080;48.528;8.078;2022-12-29T04:20:12;13.50;99.90
10083;DHT22;5080;48.528;8.078;2022-12-29T04:23:01;13.50;99.90
10083;DHT22;5080;48.528;8.078;2022-12-29T04:25:28;13.50;99.90
10083;DHT22;5080;48.528;8.078;2022-12-29T04:27:55;13.50;99.90
10083;DHT22;5080;48.528;8.078;2022-12-29T04:30:22;13.40;99.90
10083;DHT22;5080;48.528;8.078;2022-12-29T04:32:49;13.30;99.90
10083;DHT22;5080;48.528;8.078;2022-12-29T04:35:16;13.30;99.90
10083;DHT22;5080;48.528;8.078;2022-12-29T04:37:43;13.30;99.90
10083;DHT22;5080;48.528;8.078;2022-12-29T04:40:12;13.30;99.90
10083;DHT22;5080;48.528;8.078;2022-12-29T04:42:39;13.20;99.90
10083;DHT22;5080;48.528;8.078;2022-12-29T04:45:07;13.20;99.90
10083;DHT22;5080;48.528;8.078;2022-12-29T04:47:34;13.20;99.90
10083;DHT22;5080;48.528;8.078;2022-12-29T04:50:01;13.20;99.90
10083;DHT22;5080;48.528;8.078;2022-12-29T04:52:28;13.20;99.90
10083;DHT22;5080;48.528;8.078;2022-12-29T04:54:55;13.20;99.90
10083;DHT22;5080;48.528;8.078;2022-12-29T04:57:24;13.20;99.90
10083;DHT22;5080;48.528;8.078;2022-12-29T04:59:51;13.30;99.90
10083;DHT22;5080;48.528;8.078;2022-12-29T05:02:18;13.30;99.90
10083;DHT22;5080;48.528;8.078;2022-12-29T05:04:45;13.30;99.90
10083;DHT22;5080;48.528;8.078;2022-12-29T05:07:12;13.30;99.90
10083;DHT22;5080;48.528;8.078;2022-12-29T05:09:39;13.30;99.90
10083;DHT22;5080;48.528;8.078;2022-12-29T05:12:06;13.30;99.90
10083;DHT22;5080;48.528;8.078;2022-12-29T05:14:35;13.30;99.90
10083;DHT22;5080;48.528;8.078;2022-12-29T05:17:02;13.30;99.90
10083;DHT22;5080;48.528;8.078;2022-12-29T05:19:29;13.30;99.90
10083;DHT22;5080;48.528;8.078;2022-12-29T05:21:56;13.30;99.90
10083;DHT22;5080;48.528;8.078;2022-12-29T05:24:24;13.30;99.90
10083;DHT22;5080;48.528;8.078;2022-12-29T05:26:51;13.30;99.90
10083;DHT22;5080;48.528;8.078;2022-12-29T05:29:18;13.30;99.90
10083;DHT22;5080;48.528;8.078;2022-12-29T05:31:46;13.30;99.90
10083;DHT22;5080;48.528;8.078;2022-12-29T05:34:14;13.30;99.90
10083;DHT22;5080;48.528;8.078;2022-12-29T05:36:41;13.30;99.90
10083;DHT22;5080;48.528;8.078;2022-12-29T05:39:08;13.30;99.90
10083;DHT22;5080;48.528;8.078;2022-12-29T05:41:35;13.40;99.90
10083;DHT22;5080;48.528;8.078;2022-12-29T05:44:02;13.40;99.90
10083;DHT22;5080;48.528;8.078;2022-12-29T05:46:29;13.40;99.90
10083;DHT22;5080;48.528;8.078;2022-12-29T05:48:57;13.50;99.90
10083;DHT22;5080;48.528;8.078;2022-12-29T05:51:24;13.50;99.90
10083;DHT22;5080;48.528;8.078;2022-12-29T05:53:51;13.50;99.90
10083;DHT22;5080;48.528;8.078;2022-12-29T05:56:18;13.60;99.90
10083;DHT22;5080;48.528;8.078;2022-12-29T05:58:45;13.60;99.90
10083;DHT22;5080;48.528;8.078;2022-12-29T06:01:12;13.70;99.90
10083;DHT22;5080;48.528;8.078;2022-12-29T06:03:39;13.60;99.90
10083;DHT22;5080;48.528;8.078;2022-12-29T06:06:08;13.60;99.90
10083;DHT22;5080;48.528;8.078;2022-12-29T06:08:35;13.70;99.90
10083;DHT22;5080;48.528;8.078;2022-12-29T06:11:02;13.60;99.90
10083;DHT22;5080;48.528;8.078;2022-12-29T06:13:29;13.70;99.90
10083;DHT22;5080;48.528;8.078;2022-12-29T06:15:56;13.70;99.90
10083;DHT22;5080;48.528;8.078;2022-12-29T06:18:23;13.70;99.90
10083;DHT22;5080;48.528;8.078;2022-12-29T06:20:50;13.70;99.90
10083;DHT22;5080;48.528;8.078;2022-12-29T06:23:18;13.70;99.90
10083;DHT22;5080;48.528;8.078;2022-12-29T06:25:47;13.80;99.90
10083;DHT22;5080;48.528;8.078;2022-12-29T06:28:14;13.80;99.90
10083;DHT22;5080;48.528;8.078;2022-12-29T06:30:43;13.70;99.90
10083;DHT22;5080;48.528;8.078;2022-12-29T06:33:10;13.70;99.90
10083;DHT22;5080;48.528;8.078;2022-12-29T06:35:38;13.70;99.90
10083;DHT22;5080;48.528;8.078;2022-12-29T06:38:08;13.70;99.90
10083;DHT22;5080;48.528;8.078;2022-12-29T06:40:37;13.70;99.90
10083;DHT22;5080;48.528;8.078;2022-12-29T06:43:04;13.70;99.90
10083;DHT22;5080;48.528;8.078;2022-12-29T06:45:31;13.70;99.90
10083;DHT22;5080;48.528;8.078;2022-12-29T06:47:58;13.60;99.90
10083;DHT22;5080;48.528;8.078;2022-12-29T06:50:25;13.60;99.90
10083;DHT22;5080;48.528;8.078;2022-12-29T06:52:52;13.60;99.90
10083;DHT22;5080;48.528;8.078;2022-12-29T06:55:19;13.60;99.90
10083;DHT22;5080;48.528;8.078;2022-12-29T06:57:48;13.70;99.90
10083;DHT22;5080;48.528;8.078;2022-12-29T07:00:15;13.80;99.90
10083;DHT22;5080;48.528;8.078;2022-12-29T07:02:43;13.80;99.90
10083;DHT22;5080;48.528;8.078;2022-12-29T07:05:10;13.80;99.90
10083;DHT22;5080;48.528;8.078;2022-12-29T07:07:37;13.90;99.90
10083;DHT22;5080;48.528;8.078;2022-12-29T07:10:04;13.90;99.90
10083;DHT22;5080;48.528;8.078;2022-12-29T07:12:32;13.90;99.90
10083;DHT22;5080;48.528;8.078;2022-12-29T07:15:00;13.90;99.90
10083;DHT22;5080;48.528;8.078;2022-12-29T07:17:27;13.90;99.90
10083;DHT22;5080;48.528;8.078;2022-12-29T07:19:54;14.00;99.90
10083;DHT22;5080;48.528;8.078;2022-12-29T07:22:24;14.10;99.90
10083;DHT22;5080;48.528;8.078;2022-12-29T07:24:53;14.10;99.90
10083;DHT22;5080;48.528;8.078;2022-12-29T07:27:20;14.10;99.90
10083;DHT22;5080;48.528;8.078;2022-12-29T07:29:47;14.20;99.90
10083;DHT22;5080;48.528;8.078;2022-12-29T07:32:15;14.10;99.90
10083;DHT22;5080;48.528;8.078;2022-12-29T07:34:42;14.20;99.90
10083;DHT22;5080;48.528;8.078;2022-12-29T07:37:11;14.20;99.90
10083;DHT22;5080;48.528;8.078;2022-12-29T07:39:39;14.20;99.90
10083;DHT22;5080;48.528;8.078;2022-12-29T07:42:06;14.30;99.90
10083;DHT22;5080;48.528;8.078;2022-12-29T07:44:33;14.30;99.90
10083;DHT22;5080;48.528;8.078;2022-12-29T07:47:02;14.30;99.90
10083;DHT22;5080;48.528;8.078;2022-12-29T07:49:30;14.30;99.90
10083;DHT22;5080;48.528;8.078;2022-12-29T07:51:58;14.40;99.90
10083;DHT22;5080;48.528;8.078;2022-12-29T07:54:25;14.40;99.90
10083;DHT22;5080;48.528;8.078;2022-12-29T07:56:55;14.40;99.90
10083;DHT22;5080;48.528;8.078;2022-12-29T07:59:23;14.40;99.90
10083;DHT22;5080;48.528;8.078;2022-12-29T08:01:50;14.50;99.90
10083;DHT22;5080;48.528;8.078;2022-12-29T08:04:17;14.50;99.90
10083;DHT22;5080;48.528;8.078;2022-12-29T08:06:45;14.50;99.90
10083;DHT22;5080;48.528;8.078;2022-12-29T08:09:12;14.50;99.90
10083;DHT22;5080;48.528;8.078;2022-12-29T08:11:39;14.60;99.90
10083;DHT22;5080;48.528;8.078;2022-12-29T08:14:10;14.60;99.90
10083;DHT22;5080;48.528;8.078;2022-12-29T08:16:43;14.60;99.90
10083;DHT22;5080;48.528;8.078;2022-12-29T08:19:11;14.70;99.90
10083;DHT22;5080;48.528;8.078;2022-12-29T08:21:38;14.70;99.90
10083;DHT22;5080;48.528;8.078;2022-12-29T08:24:07;14.70;99.90
10083;DHT22;5080;48.528;8.078;2022-12-29T08:26:35;14.70;99.90
10083;DHT22;5080;48.528;8.078;2022-12-29T08:29:02;14.80;99.90
10083;DHT22;5080;48.528;8.078;2022-12-29T08:31:28;14.80;99.90
10083;DHT22;5080;48.528;8.078;2022-12-29T08:33:55;14.80;99.90
10083;DHT22;5080;48.528;8.078;2022-12-29T08:36:22;14.80;99.90
10083;DHT22;5080;48.528;8.078;2022-12-29T08:38:49;14.80;99.90
10083;DHT22;5080;48.528;8.078;2022-12-29T08:41:18;14.80;99.90
10083;DHT22;5080;48.528;8.078;2022-12-29T08:43:45;14.80;99.90
10083;DHT22;5080;48.528;8.078;2022-12-29T08:46:13;14.80;99.90
10083;DHT22;5080;48.528;8.078;2022-12-29T08:48:41;14.80;99.90
10083;DHT22;5080;48.528;8.078;2022-12-29T08:51:08;14.80;99.90
10083;DHT22;5080;48.528;8.078;2022-12-29T08:53:35;14.80;99.90
10083;DHT22;5080;48.528;8.078;2022-12-29T08:56:03;14.80;99.90
10083;DHT22;5080;48.528;8.078;2022-12-29T08:58:31;14.80;99.90
10083;DHT22;5080;48.528;8.078;2022-12-29T09:00:59;14.80;99.90
10083;DHT22;5080;48.528;8.078;2022-12-29T09:03:27;14.80;99.90
10083;DHT22;5080;48.528;8.078;2022-12-29T09:05:56;14.80;99.90
10083;DHT22;5080;48.528;8.078;2022-12-29T09:08:23;14.80;99.90
10083;DHT22;5080;48.528;8.078;2022-12-29T09:10:50;14.80;99.90
10083;DHT22;5080;48.528;8.078;2022-12-29T09:13:18;14.80;99.90
10083;DHT22;5080;48.528;8.078;2022-12-29T09:15:46;14.80;99.90
10083;DHT22;5080;48.528;8.078;2022-12-29T09:18:13;14.80;99.90
10083;DHT22;5080;48.528;8.078;2022-12-29T09:20:43;14.80;99.90
10083;DHT22;5080;48.528;8.078;2022-12-29T09:23:10;14.80;99.90
10083;DHT22;5080;48.528;8.078;2022-12-29T09:25:37;14.80;99.90
10083;DHT22;5080;48.528;8.078;2022-12-29T09:28:04;14.90;99.90
10083;DHT22;5080;48.528;8.078;2022-12-29T09:30:33;14.90;99.90
10083;DHT22;5080;48.528;8.078;2022-12-29T09:33:02;15.00;99.90
10083;DHT22;5080;48.528;8.078;2022-12-29T09:35:29;15.00;99.90
10083;DHT22;5080;48.528;8.078;2022-12-29T09:37:56;15.00;99.90
10083;DHT22;5080;48.528;8.078;2022-12-29T09:40:26;15.00;99.90
10083;DHT22;5080;48.528;8.078;2022-12-29T09:45:55;15.00;99.90
10083;DHT22;5080;48.528;8.078;2022-12-29T09:48:29;15.00;99.90
10083;DHT22;5080;48.528;8.078;2022-12-29T09:51:00;15.00;99.90
10083;DHT22;5080;48.528;8.078;2022-12-29T09:53:33;15.00;99.90
10083;DHT22;5080;48.528;8.078;2022-12-29T09:56:05;15.00;99.90
10083;DHT22;5080;48.528;8.078;2022-12-29T09:58:40;15.00;99.90
10083;DHT22;5080;48.528;8.078;2022-12-29T10:01:17;15.10;99.90
10083;DHT22;5080;48.528;8.078;2022-12-29T10:03:51;15.10;99.90
10083;DHT22;5080;48.528;8.078;2022-12-29T10:06:22;15.20;99.90
10083;DHT22;5080;48.528;8.078;2022-12-29T10:08:57;15.30;99.90
10083;DHT22;5080;48.528;8.078;2022-12-29T10:11:38;15.30;99.90
10083;DHT22;5080;48.528;8.078;2022-12-29T10:14:20;15.30;99.90
10083;DHT22;5080;48.528;8.078;2022-12-29T10:17:00;15.40;99.90
10083;DHT22;5080;48.528;8.078;2022-12-29T10:19:53;15.40;99.90
10083;DHT22;5080;48.528;8.078;2022-12-29T10:22:32;15.50;99.90
10083;DHT22;5080;48.528;8.078;2022-12-29T10:25:19;15.40;99.90
10083;DHT22;5080;48.528;8.078;2022-12-29T10:27:48;15.50;99.90
10083;DHT22;5080;48.528;8.078;2022-12-29T10:30:16;15.50;99.90
10083;DHT22;5080;48.528;8.078;2022-12-29T10:32:47;15.40;99.90
10083;DHT22;5080;48.528;8.078;2022-12-29T10:35:19;15.40;99.90
10083;DHT22;5080;48.528;8.078;2022-12-29T10:37:56;15.40;99.90
10083;DHT22;5080;48.528;8.078;2022-12-29T10:40:27;15.30;99.90
10083;DHT22;5080;48.528;8.078;2022-12-29T10:42:58;15.30;99.90
10083;DHT22;5080;48.528;8.078;2022-12-29T10:45:29;15.30;99.90
10083;DHT22;5080;48.528;8.078;2022-12-29T10:48:01;15.20;99.90
10083;DHT22;5080;48.528;8.078;2022-12-29T10:50:30;15.20;99.90
10083;DHT22;5080;48.528;8.078;2022-12-29T10:52:59;15.10;99.90
10083;DHT22;5080;48.528;8.078;2022-12-29T10:55:30;15.10;99.90
10083;DHT22;5080;48.528;8.078;2022-12-29T10:58:02;15.10;99.90
10083;DHT22;5080;48.528;8.078;2022-12-29T11:00:32;15.20;99.90
10083;DHT22;5080;48.528;8.078;2022-12-29T11:03:18;15.20;99.90
10083;DHT22;5080;48.528;8.078;2022-12-29T11:05:54;15.20;99.90
10083;DHT22;5080;48.528;8.078;2022-12-29T11:08:26;15.20;99.90
10083;DHT22;5080;48.528;8.078;2022-12-29T11:10:59;15.10;99.90
10083;DHT22;5080;48.528;8.078;2022-12-29T11:13:28;15.00;99.90
10083;DHT22;5080;48.528;8.078;2022-12-29T11:15:55;15.00;99.90
10083;DHT22;5080;48.528;8.078;2022-12-29T11:18:24;15.00;99.90
10083;DHT22;5080;48.528;8.078;2022-12-29T11:20:54;15.00;99.90
10083;DHT22;5080;48.528;8.078;2022-12-29T11:23:29;15.00;99.90
10083;DHT22;5080;48.528;8.078;2022-12-29T11:26:11;15.00;99.90
10083;DHT22;5080;48.528;8.078;2022-12-29T11:28:41;15.00;99.90
10083;DHT22;5080;48.528;8.078;2022-12-29T11:31:09;15.00;99.90
10083;DHT22;5080;48.528;8.078;2022-12-29T11:33:39;15.10;99.90
10083;DHT22;5080;48.528;8.078;2022-12-29T11:36:12;15.00;99.90
10083;DHT22;5080;48.528;8.078;2022-12-29T11:38:45;15.10;99.90
10083;DHT22;5080;48.528;8.078;2022-12-29T11:41:19;15.00;99.90
10083;DHT22;5080;48.528;8.078;2022-12-29T11:43:47;15.00;99.90
10083;DHT22;5080;48.528;8.078;2022-12-29T11:46:17;15.00;99.90
10083;DHT22;5080;48.528;8.078;2022-12-29T11:48:48;15.00;99.90
10083;DHT22;5080;48.528;8.078;2022-12-29T11:51:23;15.00;99.90
10083;DHT22;5080;48.528;8.078;2022-12-29T11:53:55;15.00;99.90
10083;DHT22;5080;48.528;8.078;2022-12-29T11:56:33;15.10;99.90
10083;DHT22;5080;48.528;8.078;2022-12-29T11:59:34;15.10;99.90
10083;DHT22;5080;48.528;8.078;2022-12-29T12:02:13;15.10;99.90
10083;DHT22;5080;48.528;8.078;2022-12-29T12:04:42;15.20;99.90
10083;DHT22;5080;48.528;8.078;2022-12-29T12:07:12;15.20;99.90
10083;DHT22;5080;48.528;8.078;2022-12-29T12:09:45;15.30;99.90
10083;DHT22;5080;48.528;8.078;2022-12-29T12:12:21;15.30;99.90
10083;DHT22;5080;48.528;8.078;2022-12-29T12:14:54;15.30;99.90
10083;DHT22;5080;48.528;8.078;2022-12-29T12:17:29;15.40;99.90
10083;DHT22;5080;48.528;8.078;2022-12-29T12:20:14;15.30;99.90
10083;DHT22;5080;48.528;8.078;2022-12-29T12:22:48;15.30;99.90
10083;DHT22;5080;48.528;8.078;2022-12-29T12:25:20;15.30;99.90
10083;DHT22;5080;48.528;8.078;2022-12-29T12:27:51;15.30;99.90
10083;DHT22;5080;48.528;8.078;2022-12-29T12:30:21;15.30;99.90
10083;DHT22;5080;48.528;8.078;2022-12-29T12:32:52;15.40;99.90
10083;DHT22;5080;48.528;8.078;2022-12-29T12:35:34;15.40;99.90
10083;DHT22;5080;48.528;8.078;2022-12-29T12:38:16;15.40;99.90
10083;DHT22;5080;48.528;8.078;2022-12-29T12:41:00;15.30;99.90
10083;DHT22;5080;48.528;8.078;2022-12-29T12:43:39;15.20;99.90
10083;DHT22;5080;48.528;8.078;2022-12-29T12:49:25;15.10;99.90
10083;DHT22;5080;48.528;8.078;2022-12-29T12:52:05;15.20;99.90
10083;DHT22;5080;48.528;8.078;2022-12-29T12:54:50;15.10;99.90
10083;DHT22;5080;48.528;8.078;2022-12-29T12:57:33;15.10;99.90
10083;DHT22;5080;48.528;8.078;2022-12-29T13:00:09;15.00;99.90
10083;DHT22;5080;48.528;8.078;2022-12-29T13:02:48;15.00;99.90
10083;DHT22;5080;48.528;8.078;2022-12-29T13:05:30;15.00;99.90
10083;DHT22;5080;48.528;8.078;2022-12-29T13:08:19;15.00;99.90
10083;DHT22;5080;48.528;8.078;2022-12-29T13:10:59;15.00;99.90
10083;DHT22;5080;48.528;8.078;2022-12-29T13:13:53;15.00;99.90
10083;DHT22;5080;48.528;8.078;2022-12-29T13:16:29;15.00;99.90
10083;DHT22;5080;48.528;8.078;2022-12-29T13:19:02;15.00;99.90
10083;DHT22;5080;48.528;8.078;2022-12-29T13:21:46;15.00;99.90
10083;DHT22;5080;48.528;8.078;2022-12-29T13:24:23;15.00;99.90
10083;DHT22;5080;48.528;8.078;2022-12-29T13:26:56;15.00;99.90
10083;DHT22;5080;48.528;8.078;2022-12-29T13:29:33;15.00;99.90
10083;DHT22;5080;48.528;8.078;2022-12-29T13:32:15;15.00;99.90
10083;DHT22;5080;48.528;8.078;2022-12-29T13:34:56;15.10;99.90
10083;DHT22;5080;48.528;8.078;2022-12-29T13:37:29;15.10;99.90
10083;DHT22;5080;48.528;8.078;2022-12-29T13:40:02;14.80;99.90
10083;DHT22;5080;48.528;8.078;2022-12-29T13:42:32;15.00;99.90
10083;DHT22;5080;48.528;8.078;2022-12-29T13:45:02;15.00;99.90
10083;DHT22;5080;48.528;8.078;2022-12-29T13:47:36;14.90;99.90
10083;DHT22;5080;48.528;8.078;2022-12-29T13:50:16;15.00;99.90
10083;DHT22;5080;48.528;8.078;2022-12-29T13:52:49;15.00;99.90
10083;DHT22;5080;48.528;8.078;2022-12-29T13:55:25;15.10;99.90
10083;DHT22;5080;48.528;8.078;2022-12-29T13:58:00;15.10;99.90
10083;DHT22;5080;48.528;8.078;2022-12-29T14:00:35;15.10;99.90
10083;DHT22;5080;48.528;8.078;2022-12-29T14:06:11;15.10;99.90
10083;DHT22;5080;48.528;8.078;2022-12-29T14:08:39;15.10;99.90
10083;DHT22;5080;48.528;8.078;2022-12-29T14:11:09;15.10;99.90
10083;DHT22;5080;48.528;8.078;2022-12-29T14:13:41;15.00;99.90
10083;DHT22;5080;48.528;8.078;2022-12-29T14:16:21;15.00;99.90
10083;DHT22;5080;48.528;8.078;2022-12-29T14:18:51;15.00;99.90
10083;DHT22;5080;48.528;8.078;2022-12-29T14:21:21;15.00;99.90
10083;DHT22;5080;48.528;8.078;2022-12-29T14:23:53;15.00;99.90
10083;DHT22;5080;48.528;8.078;2022-12-29T14:26:34;14.90;99.90
10083;DHT22;5080;48.528;8.078;2022-12-29T14:29:44;15.00;99.90
10083;DHT22;5080;48.528;8.078;2022-12-29T14:32:35;15.00;99.90
10083;DHT22;5080;48.528;8.078;2022-12-29T14:38:13;14.90;99.90
10083;DHT22;5080;48.528;8.078;2022-12-29T14:40:41;14.90;99.90
10083;DHT22;5080;48.528;8.078;2022-12-29T14:43:13;14.90;99.90
10083;DHT22;5080;48.528;8.078;2022-12-29T14:45:42;14.90;99.90
10083;DHT22;5080;48.528;8.078;2022-12-29T14:48:39;14.90;99.90
10083;DHT22;5080;48.528;8.078;2022-12-29T14:51:18;14.90;99.90
10083;DHT22;5080;48.528;8.078;2022-12-29T14:53:48;14.80;99.90
10083;DHT22;5080;48.528;8.078;2022-12-29T14:56:16;14.70;99.90
10083;DHT22;5080;48.528;8.078;2022-12-29T14:58:49;14.70;99.90
10083;DHT22;5080;48.528;8.078;2022-12-29T15:01:34;14.40;99.90
10083;DHT22;5080;48.528;8.078;2022-12-29T15:04:13;13.90;99.90
10083;DHT22;5080;48.528;8.078;2022-12-29T15:06:42;13.50;99.90
10083;DHT22;5080;48.528;8.078;2022-12-29T15:09:17;13.10;99.90
10083;DHT22;5080;48.528;8.078;2022-12-29T15:11:50;12.90;99.90
10083;DHT22;5080;48.528;8.078;2022-12-29T15:14:39;12.70;99.90
10083;DHT22;5080;48.528;8.078;2022-12-29T15:17:22;12.70;99.90
10083;DHT22;5080;48.528;8.078;2022-12-29T15:19:50;12.60;99.90
10083;DHT22;5080;48.528;8.078;2022-12-29T15:22:17;12.60;99.90
10083;DHT22;5080;48.528;8.078;2022-12-29T15:24:45;12.60;99.90
10083;DHT22;5080;48.528;8.078;2022-12-29T15:27:15;12.50;99.90
10083;DHT22;5080;48.528;8.078;2022-12-29T15:29:44;12.60;99.90
10083;DHT22;5080;48.528;8.078;2022-12-29T15:32:21;12.70;99.90
10083;DHT22;5080;48.528;8.078;2022-12-29T15:34:50;12.60;99.90
10083;DHT22;5080;48.528;8.078;2022-12-29T15:37:19;12.60;99.90
10083;DHT22;5080;48.528;8.078;2022-12-29T15:39:46;12.60;99.90
10083;DHT22;5080;48.528;8.078;2022-12-29T15:42:27;12.70;99.90
10083;DHT22;5080;48.528;8.078;2022-12-29T15:44:57;12.70;99.90
10083;DHT22;5080;48.528;8.078;2022-12-29T15:47:29;12.60;99.90
10083;DHT22;5080;48.528;8.078;2022-12-29T15:50:01;12.60;99.90
10083;DHT22;5080;48.528;8.078;2022-12-29T15:52:31;12.60;99.90
10083;DHT22;5080;48.528;8.078;2022-12-29T15:54:58;12.60;99.90
10083;DHT22;5080;48.528;8.078;2022-12-29T15:57:28;12.60;99.90
10083;DHT22;5080;48.528;8.078;2022-12-29T15:59:55;12.60;99.90
10083;DHT22;5080;48.528;8.078;2022-12-29T16:02:23;12.50;99.90
10083;DHT22;5080;48.528;8.078;2022-12-29T16:04:52;12.50;99.90
10083;DHT22;5080;48.528;8.078;2022-12-29T16:07:24;12.50;99.90
10083;DHT22;5080;48.528;8.078;2022-12-29T16:09:55;12.50;99.90
10083;DHT22;5080;48.528;8.078;2022-12-29T16:12:24;12.50;99.90
10083;DHT22;5080;48.528;8.078;2022-12-29T16:14:55;12.60;99.90
10083;DHT22;5080;48.528;8.078;2022-12-29T16:17:25;12.60;99.90
10083;DHT22;5080;48.528;8.078;2022-12-29T16:19:56;12.70;99.90
10083;DHT22;5080;48.528;8.078;2022-12-29T16:22:29;12.60;99.90
10083;DHT22;5080;48.528;8.078;2022-12-29T16:25:01;12.60;99.90
10083;DHT22;5080;48.528;8.078;2022-12-29T16:27:36;12.60;99.90